createdAt,value
2017-10-21T00:01:17.180Z,3.30
2017-10-21T00:03:46.231Z,3.65
2017-10-21T00:06:14.517Z,3.70
2017-10-21T00:08:42.743Z,3.05
2017-10-21T00:11:10.966Z,3.53
2017-10-21T00:13:39.198Z,3.92
2017-10-21T00:16:07.452Z,3.53
2017-10-21T00:18:36.425Z,3.50
2017-10-21T00:21:05.422Z,2.83
2017-10-21T00:23:33.719Z,3.47
2017-10-21T00:26:01.957Z,3.85
2017-10-21T00:28:30.163Z,3.00
2017-10-21T00:30:59.324Z,3.50
2017-10-21T00:33:27.550Z,4.10
2017-10-21T00:35:55.819Z,3.62
2017-10-21T00:38:24.039Z,3.40
2017-10-21T00:40:52.271Z,3.83
2017-10-21T00:43:20.471Z,4.00
2017-10-21T00:45:48.695Z,3.67
2017-10-21T00:48:17.744Z,3.28
2017-10-21T00:50:46.015Z,3.40
2017-10-21T00:53:14.237Z,3.20
2017-10-21T00:55:43.219Z,3.28
2017-10-21T00:58:12.208Z,3.28
2017-10-21T01:00:40.474Z,3.50
2017-10-21T01:03:08.686Z,3.40
2017-10-21T01:05:36.901Z,3.78
2017-10-21T01:08:05.127Z,3.35
2017-10-21T01:10:33.373Z,3.28
2017-10-21T01:13:01.615Z,3.75
2017-10-21T01:15:29.828Z,3.95
2017-10-21T01:17:58.058Z,3.92
2017-10-21T01:20:27.037Z,3.90
2017-10-21T01:22:55.288Z,3.05
2017-10-21T01:25:24.262Z,3.70
2017-10-21T01:27:52.493Z,3.83
2017-10-21T01:30:20.712Z,4.05
2017-10-21T01:32:48.946Z,3.55
2017-10-21T01:35:17.150Z,4.30
2017-10-21T01:37:45.395Z,3.08
2017-10-21T01:40:13.627Z,3.55
2017-10-21T01:42:42.571Z,3.72
2017-10-21T01:45:10.744Z,3.62
2017-10-21T01:47:39.042Z,3.60
2017-10-21T01:50:07.272Z,2.95
2017-10-21T01:52:35.462Z,3.22
2017-10-21T01:55:03.691Z,2.60
2017-10-21T01:57:32.812Z,3.35
2017-10-21T02:00:01.039Z,3.97
2017-10-21T02:02:29.241Z,3.62
2017-10-21T02:04:57.448Z,3.50
2017-10-21T02:07:25.649Z,2.92
2017-10-21T02:09:53.939Z,3.05
2017-10-21T02:12:22.171Z,3.45
2017-10-21T02:14:50.383Z,3.17
2017-10-21T02:17:18.661Z,3.45
2017-10-21T02:19:46.902Z,3.60
2017-10-21T02:22:15.152Z,3.50
2017-10-21T02:24:43.448Z,3.92
2017-10-21T02:27:11.659Z,4.10
2017-10-21T02:29:39.894Z,3.70
2017-10-21T02:32:08.165Z,3.42
2017-10-21T02:34:36.383Z,3.50
2017-10-21T02:37:04.622Z,3.75
2017-10-21T02:39:32.882Z,3.65
2017-10-21T02:42:02.114Z,3.75
2017-10-21T02:44:30.366Z,3.35
2017-10-21T02:46:58.608Z,3.67
2017-10-21T02:49:26.825Z,3.30
2017-10-21T02:51:55.113Z,3.53
2017-10-21T02:54:23.321Z,3.35
2017-10-21T02:56:51.576Z,3.60
2017-10-21T02:59:19.804Z,3.10
2017-10-21T03:01:48.152Z,3.42
2017-10-21T03:04:16.440Z,4.15
2017-10-21T03:06:44.645Z,3.50
2017-10-21T03:09:12.948Z,3.97
2017-10-21T03:11:41.276Z,3.60
2017-10-21T03:14:09.496Z,2.75
2017-10-21T03:16:37.715Z,4.15
2017-10-21T03:19:05.918Z,3.80
2017-10-21T03:21:34.527Z,4.50
2017-10-21T03:24:02.779Z,3.30
2017-10-21T03:26:31.020Z,3.10
2017-10-21T03:28:59.239Z,3.53
2017-10-21T03:31:27.463Z,3.17
2017-10-21T03:33:55.681Z,3.53
2017-10-21T03:36:23.891Z,3.53
2017-10-21T03:38:52.896Z,3.05
2017-10-21T03:41:21.125Z,2.60
2017-10-21T03:43:49.403Z,3.08
2017-10-21T03:46:17.790Z,3.10
2017-10-21T03:48:46.007Z,3.12
2017-10-21T03:51:14.226Z,3.35
2017-10-21T03:53:42.440Z,3.97
2017-10-21T03:56:10.728Z,3.22
2017-10-21T03:58:38.960Z,3.25
2017-10-21T04:01:07.174Z,3.12
2017-10-21T04:03:36.272Z,3.58
2017-10-21T04:06:04.521Z,4.57
2017-10-21T04:08:33.588Z,3.42
2017-10-21T04:11:01.795Z,3.45
2017-10-21T04:13:30.786Z,4.55
2017-10-21T04:15:59.785Z,3.47
2017-10-21T04:18:27.980Z,4.03
2017-10-21T04:20:56.203Z,3.60
2017-10-21T04:23:24.412Z,3.35
2017-10-21T04:25:52.613Z,3.40
2017-10-21T04:28:20.839Z,3.30
2017-10-21T04:30:49.813Z,3.65
2017-10-21T04:33:18.036Z,3.58
2017-10-21T04:35:46.264Z,3.60
2017-10-21T04:38:14.495Z,4.12
2017-10-21T04:40:42.720Z,3.05
2017-10-21T04:43:10.940Z,3.22
2017-10-21T04:45:39.160Z,4.15
2017-10-21T04:48:07.399Z,3.95
2017-10-21T04:50:35.632Z,3.50
2017-10-21T04:53:03.856Z,3.08
2017-10-21T04:55:32.060Z,3.90
2017-10-21T04:58:00.348Z,3.45
2017-10-21T05:00:29.331Z,3.67
2017-10-21T05:02:57.558Z,3.30
2017-10-21T05:05:25.767Z,3.67
2017-10-21T05:07:54.001Z,3.37
2017-10-21T05:10:22.260Z,3.62
2017-10-21T05:12:50.473Z,3.40
2017-10-21T05:15:18.741Z,3.55
2017-10-21T05:17:46.944Z,3.70
2017-10-21T05:20:15.148Z,3.65
2017-10-21T05:22:43.365Z,3.58
2017-10-21T05:25:11.583Z,3.12
2017-10-21T05:27:40.592Z,3.50
2017-10-21T05:30:08.789Z,3.72
2017-10-21T05:32:37.007Z,3.58
2017-10-21T05:35:05.338Z,3.33
2017-10-21T05:37:33.571Z,3.33
2017-10-21T05:40:02.568Z,3.10
2017-10-21T05:42:31.554Z,3.67
2017-10-21T05:45:00.586Z,3.45
2017-10-21T05:47:28.795Z,3.15
2017-10-21T05:49:57.000Z,3.45
2017-10-21T05:52:25.987Z,3.72
2017-10-21T05:54:54.232Z,3.37
2017-10-21T05:57:22.427Z,3.10
2017-10-21T05:59:50.627Z,2.80
2017-10-21T06:02:18.884Z,3.55
2017-10-21T06:04:47.127Z,3.70
2017-10-21T06:07:15.331Z,3.15
2017-10-21T06:09:44.361Z,3.30
2017-10-21T06:12:12.659Z,3.12
2017-10-21T06:14:40.859Z,3.90
2017-10-21T06:17:11.047Z,2.95
2017-10-21T06:19:39.329Z,3.17
2017-10-21T06:22:07.719Z,3.80
2017-10-21T06:24:35.941Z,2.78
2017-10-21T06:27:04.188Z,3.42
2017-10-21T06:29:32.488Z,3.72
2017-10-21T06:32:01.476Z,3.15
2017-10-21T06:34:29.688Z,3.42
2017-10-21T06:36:57.897Z,3.47
2017-10-21T06:39:26.136Z,3.70
2017-10-21T06:41:54.407Z,3.50
2017-10-21T06:44:22.627Z,3.70
2017-10-21T06:46:50.866Z,3.20
2017-10-21T06:49:19.092Z,2.80
2017-10-21T06:51:48.092Z,3.05
2017-10-21T06:54:16.307Z,3.80
2017-10-21T06:56:44.553Z,3.08
2017-10-21T06:59:12.783Z,3.87
2017-10-21T07:01:41.096Z,3.42
2017-10-21T07:04:09.317Z,3.30
2017-10-21T07:06:37.515Z,3.28
2017-10-21T07:09:05.748Z,3.25
2017-10-21T07:11:33.969Z,3.60
2017-10-21T07:14:02.975Z,3.65
2017-10-21T07:16:31.187Z,3.40
2017-10-21T07:18:59.403Z,3.58
2017-10-21T07:21:27.639Z,3.85
2017-10-21T07:23:55.863Z,3.15
2017-10-21T07:26:24.838Z,3.40
2017-10-21T07:28:53.047Z,4.22
2017-10-21T07:31:21.267Z,3.10
2017-10-21T07:33:49.479Z,3.75
2017-10-21T07:36:18.489Z,3.33
2017-10-21T07:38:46.705Z,3.92
2017-10-21T07:41:14.964Z,4.18
2017-10-21T07:43:43.225Z,3.58
2017-10-21T07:46:11.433Z,3.90
2017-10-21T07:48:39.707Z,3.25
2017-10-21T07:51:07.924Z,3.85
2017-10-21T07:53:36.152Z,3.97
2017-10-21T07:56:04.453Z,4.15
2017-10-21T07:58:32.706Z,3.83
2017-10-21T08:01:00.953Z,3.90
2017-10-21T08:03:29.227Z,3.35
2017-10-21T08:05:57.440Z,3.83
2017-10-21T08:08:25.675Z,3.45
2017-10-21T08:10:53.903Z,3.70
2017-10-21T08:13:23.971Z,3.45
2017-10-21T08:15:52.259Z,4.10
2017-10-21T08:18:20.502Z,3.60
2017-10-21T08:20:48.738Z,3.80
2017-10-21T08:23:16.993Z,3.47
2017-10-21T08:25:45.269Z,3.85
2017-10-21T08:28:14.370Z,4.07
2017-10-21T08:30:42.604Z,3.85
2017-10-21T08:33:10.857Z,3.53
2017-10-21T08:35:39.924Z,4.32
2017-10-21T08:38:08.155Z,3.42
2017-10-21T08:40:36.419Z,2.83
2017-10-21T08:43:04.640Z,3.42
2017-10-21T08:45:32.879Z,3.58
2017-10-21T08:48:01.142Z,4.20
2017-10-21T08:50:29.467Z,3.37
2017-10-21T08:52:57.696Z,2.97
2017-10-21T08:55:25.944Z,3.12
2017-10-21T08:57:54.992Z,3.17
2017-10-21T09:00:23.203Z,4.18
2017-10-21T09:02:52.192Z,3.30
2017-10-21T09:05:20.360Z,3.83
2017-10-21T09:07:48.869Z,3.55
2017-10-21T09:10:17.077Z,3.53
2017-10-21T09:12:45.299Z,3.37
2017-10-21T09:15:14.298Z,3.47
2017-10-21T09:17:43.387Z,3.55
2017-10-21T09:20:12.390Z,3.12
2017-10-21T09:22:41.359Z,4.07
2017-10-21T09:25:09.604Z,3.55
2017-10-21T09:27:37.883Z,3.20
2017-10-21T09:30:06.187Z,3.35
2017-10-21T09:32:34.419Z,3.30
2017-10-21T09:35:02.649Z,2.87
2017-10-21T09:37:31.646Z,3.80
2017-10-21T09:40:00.635Z,3.87
2017-10-21T09:42:29.652Z,3.78
2017-10-21T09:44:57.911Z,3.85
2017-10-21T09:47:26.132Z,2.80
2017-10-21T09:49:54.365Z,3.67
2017-10-21T09:52:22.610Z,3.53
2017-10-21T09:54:50.835Z,3.67
2017-10-21T09:57:19.069Z,3.00
2017-10-21T09:59:48.793Z,3.80
2017-10-21T10:02:17.032Z,3.10
2017-10-21T10:04:45.269Z,3.75
2017-10-21T10:07:13.467Z,3.28
2017-10-21T10:09:41.790Z,3.80
2017-10-21T10:12:10.049Z,2.83
2017-10-21T10:14:39.044Z,3.25
2017-10-21T10:17:08.032Z,3.10
2017-10-21T10:19:37.046Z,2.95
2017-10-21T10:22:05.312Z,3.50
2017-10-21T10:24:33.541Z,3.22
2017-10-21T10:27:01.793Z,2.70
2017-10-21T10:29:30.031Z,3.00
2017-10-21T10:31:59.011Z,3.40
2017-10-21T10:34:28.071Z,3.28
2017-10-21T10:36:56.307Z,3.08
2017-10-21T10:39:24.834Z,3.25
2017-10-21T10:41:53.104Z,3.12
2017-10-21T10:44:21.331Z,3.30
2017-10-21T10:46:49.618Z,2.90
2017-10-21T10:49:18.767Z,3.70
2017-10-21T10:51:47.164Z,2.80
2017-10-21T10:54:16.320Z,3.00
2017-10-21T10:56:44.635Z,3.30
2017-10-21T10:59:13.810Z,3.15
2017-10-21T11:01:42.167Z,2.87
2017-10-21T11:04:10.516Z,2.70
2017-10-21T11:06:38.778Z,3.65
2017-10-21T11:09:07.969Z,2.90
2017-10-21T11:11:36.172Z,3.00
2017-10-21T11:14:04.398Z,2.92
2017-10-21T11:16:32.663Z,3.45
2017-10-21T11:19:01.939Z,4.43
2017-10-21T11:21:30.165Z,3.00
2017-10-21T11:23:59.144Z,3.37
2017-10-21T11:26:28.162Z,3.03
2017-10-21T11:28:56.384Z,3.10
2017-10-21T11:31:24.662Z,3.30
2017-10-21T11:33:52.907Z,2.80
2017-10-21T11:36:21.556Z,3.05
2017-10-21T11:38:50.623Z,3.03
2017-10-21T11:41:18.930Z,3.20
2017-10-21T11:43:47.983Z,3.00
2017-10-21T11:46:16.193Z,3.55
2017-10-21T11:48:45.183Z,2.83
2017-10-21T11:51:14.156Z,2.80
2017-10-21T11:53:42.405Z,2.60
2017-10-21T11:56:10.647Z,2.97
2017-10-21T11:58:38.878Z,3.67
2017-10-21T12:01:07.447Z,3.08
2017-10-21T12:03:35.680Z,3.05
2017-10-21T12:06:03.907Z,3.78
2017-10-21T12:08:32.215Z,3.17
2017-10-21T12:11:00.460Z,2.70
2017-10-21T12:13:28.690Z,2.80
2017-10-21T12:15:57.038Z,2.65
2017-10-21T12:18:25.243Z,2.60
2017-10-21T12:20:54.114Z,3.50
2017-10-21T12:23:22.348Z,3.00
2017-10-21T12:25:50.563Z,3.20
2017-10-21T12:28:18.788Z,3.08
2017-10-21T12:30:47.072Z,3.05
2017-10-21T12:33:15.293Z,3.20
2017-10-21T12:35:43.510Z,2.55
2017-10-21T12:38:11.711Z,3.00
2017-10-21T12:40:40.793Z,2.70
2017-10-21T12:43:09.016Z,2.40
2017-10-21T12:45:37.273Z,2.85
2017-10-21T12:48:05.495Z,3.50
2017-10-21T12:50:33.722Z,2.60
2017-10-21T12:53:01.897Z,3.00
2017-10-21T12:55:30.126Z,3.10
2017-10-21T12:57:58.352Z,2.55
2017-10-21T13:00:26.595Z,2.72
2017-10-21T13:02:54.835Z,2.97
2017-10-21T13:05:23.060Z,3.37
2017-10-21T13:07:51.260Z,3.10
2017-10-21T13:10:19.539Z,2.65
2017-10-21T13:12:47.757Z,3.12
2017-10-21T13:15:16.761Z,3.10
2017-10-21T13:17:45.745Z,2.95
2017-10-21T13:20:14.698Z,2.90
2017-10-21T13:22:43.021Z,3.22
2017-10-21T13:25:12.017Z,3.12
2017-10-21T13:27:41.057Z,3.72
2017-10-21T13:30:09.297Z,3.58
2017-10-21T13:32:37.515Z,2.87
2017-10-21T13:35:05.716Z,3.25
2017-10-21T13:37:34.768Z,3.47
2017-10-21T13:40:03.064Z,3.10
2017-10-21T13:42:31.278Z,3.47
2017-10-21T13:45:00.270Z,3.87
2017-10-21T13:47:29.265Z,3.30
2017-10-21T13:49:58.241Z,2.90
2017-10-21T13:52:27.247Z,3.65
2017-10-21T13:54:56.216Z,2.90
2017-10-21T13:57:24.406Z,3.15
2017-10-21T13:59:52.794Z,3.37
2017-10-21T14:02:20.994Z,3.10
2017-10-21T14:04:49.207Z,2.90
2017-10-21T14:07:17.463Z,3.22
2017-10-21T14:09:45.693Z,2.67
2017-10-21T14:12:13.896Z,3.05
2017-10-21T14:14:42.153Z,3.60
2017-10-21T14:17:10.383Z,2.60
2017-10-21T14:19:38.590Z,2.87
2017-10-21T14:22:06.805Z,2.55
2017-10-21T14:24:35.029Z,2.87
2017-10-21T14:27:04.036Z,2.80
2017-10-21T14:29:32.255Z,2.80
2017-10-21T14:32:00.455Z,2.97
2017-10-21T14:34:29.494Z,2.70
2017-10-21T14:36:57.687Z,2.67
2017-10-21T14:39:25.907Z,2.90
2017-10-21T14:41:54.241Z,4.10
2017-10-21T14:44:22.473Z,3.58
2017-10-21T14:46:50.680Z,2.70
2017-10-21T14:49:18.875Z,2.85
2017-10-21T14:51:47.067Z,2.70
2017-10-21T14:54:16.116Z,2.95
2017-10-21T14:56:44.390Z,3.22
2017-10-21T14:59:12.615Z,3.42
2017-10-21T15:01:41.599Z,2.95
2017-10-21T15:04:09.807Z,2.50
2017-10-21T15:06:38.277Z,2.60
2017-10-21T15:09:07.483Z,4.32
2017-10-21T15:11:35.673Z,2.70
2017-10-21T15:14:03.975Z,3.37
2017-10-21T15:16:32.185Z,2.67
2017-10-21T15:19:01.180Z,2.78
2017-10-21T15:21:30.147Z,2.53
2017-10-21T15:23:58.443Z,3.22
2017-10-21T15:26:26.689Z,3.90
2017-10-21T15:28:54.964Z,3.30
2017-10-21T15:31:23.180Z,3.08
2017-10-21T15:33:51.498Z,3.80
2017-10-21T15:36:19.729Z,3.08
2017-10-21T15:38:47.997Z,3.33
2017-10-21T15:41:16.248Z,3.78
2017-10-21T15:43:44.498Z,3.92
2017-10-21T15:46:12.706Z,2.78
2017-10-21T15:48:41.796Z,3.45
2017-10-21T15:51:10.801Z,3.17
2017-10-21T15:53:39.765Z,3.55
2017-10-21T15:56:08.010Z,3.70
2017-10-21T15:58:36.231Z,3.28
2017-10-21T16:01:04.492Z,3.70
2017-10-21T16:03:32.719Z,3.37
2017-10-21T16:06:00.945Z,2.80
2017-10-21T16:08:29.270Z,3.20
2017-10-21T16:10:57.552Z,2.92
2017-10-21T16:13:25.787Z,3.60
2017-10-21T16:15:55.029Z,2.92
2017-10-21T16:18:23.280Z,3.30
2017-10-21T16:20:51.484Z,3.00
2017-10-21T16:23:19.731Z,3.28
2017-10-21T16:25:48.067Z,3.12
2017-10-21T16:28:16.256Z,3.10
2017-10-21T16:30:45.222Z,3.10
2017-10-21T16:33:13.416Z,3.10
2017-10-21T16:35:41.666Z,2.75
2017-10-21T16:38:09.888Z,2.95
2017-10-21T16:40:38.196Z,2.90
2017-10-21T16:43:06.413Z,2.78
2017-10-21T16:45:35.385Z,3.50
2017-10-21T16:48:03.742Z,2.92
2017-10-21T16:50:31.955Z,4.03
2017-10-21T16:53:00.314Z,3.10
2017-10-21T16:55:28.593Z,2.80
2017-10-21T16:57:56.929Z,2.50
2017-10-21T17:00:25.134Z,2.50
2017-10-21T17:02:53.361Z,2.85
2017-10-21T17:05:21.598Z,3.50
2017-10-21T17:07:49.817Z,2.50
2017-10-21T17:12:52.621Z,2.75
2017-10-21T17:15:20.852Z,3.08
2017-10-21T17:17:49.100Z,2.40
2017-10-21T17:20:17.293Z,3.30
2017-10-21T17:22:45.673Z,2.92
2017-10-21T17:25:13.906Z,2.90
2017-10-21T17:27:42.119Z,2.85
2017-10-21T17:30:10.451Z,3.08
2017-10-21T17:32:38.629Z,2.95
2017-10-21T17:35:07.748Z,2.83
2017-10-21T17:37:35.915Z,2.40
2017-10-21T17:40:04.136Z,3.37
2017-10-21T17:42:33.132Z,3.10
2017-10-21T17:45:02.161Z,2.87
2017-10-21T17:47:30.445Z,2.75
2017-10-21T17:49:58.679Z,3.17
2017-10-21T17:52:26.897Z,3.40
2017-10-21T17:54:55.153Z,2.72
2017-10-21T17:57:23.375Z,3.47
2017-10-21T17:59:51.719Z,3.10
2017-10-21T18:02:20.008Z,3.20
2017-10-21T18:04:48.231Z,3.10
2017-10-21T18:07:16.523Z,3.20
2017-10-21T18:09:44.719Z,2.85
2017-10-21T18:12:12.960Z,3.62
2017-10-21T18:14:41.218Z,3.22
2017-10-21T18:17:10.192Z,3.45
2017-10-21T18:19:39.174Z,2.92
2017-10-21T18:22:07.376Z,3.17
2017-10-21T18:24:36.431Z,3.72
2017-10-21T18:27:04.711Z,3.12
2017-10-21T18:29:32.908Z,3.55
2017-10-21T18:32:02.068Z,3.35
2017-10-21T18:34:30.401Z,3.00
2017-10-21T18:36:59.458Z,3.28
2017-10-21T18:39:27.676Z,3.28
2017-10-21T18:41:55.941Z,3.58
2017-10-21T18:44:24.249Z,3.92
2017-10-21T18:46:52.463Z,3.80
2017-10-21T18:49:20.650Z,4.07
2017-10-21T18:51:49.646Z,4.03
2017-10-21T18:54:18.640Z,3.30
2017-10-21T18:56:47.656Z,3.45
2017-10-21T18:59:15.871Z,3.40
2017-10-21T19:01:44.825Z,4.28
2017-10-21T19:04:13.081Z,4.20
2017-10-21T19:06:41.336Z,3.17
2017-10-21T19:09:10.320Z,3.80
2017-10-21T19:11:38.887Z,3.90
2017-10-21T19:14:07.174Z,3.90
2017-10-21T19:16:36.381Z,3.80
2017-10-21T19:19:05.416Z,3.95
2017-10-21T19:21:33.708Z,4.30
2017-10-21T19:24:01.960Z,4.12
2017-10-21T19:26:30.236Z,3.92
2017-10-21T19:28:58.487Z,5.50
2017-10-21T19:31:26.793Z,5.25
2017-10-21T19:33:55.176Z,4.18
2017-10-21T19:36:24.146Z,4.20
2017-10-21T19:38:52.367Z,4.53
2017-10-21T19:41:20.698Z,4.35
2017-10-21T19:43:48.936Z,5.15
2017-10-21T19:46:17.162Z,4.57
2017-10-21T19:48:45.437Z,4.70
2017-10-21T19:51:13.698Z,4.90
2017-10-21T19:53:41.946Z,3.80
2017-10-21T19:56:11.033Z,5.07
2017-10-21T19:58:39.277Z,4.80
2017-10-21T20:01:07.589Z,4.37
2017-10-21T20:03:36.579Z,4.50
2017-10-21T20:06:04.787Z,4.68
2017-10-21T20:08:33.054Z,4.47
2017-10-21T20:11:01.336Z,4.90
2017-10-21T20:13:29.607Z,4.30
2017-10-21T20:15:57.800Z,4.75
2017-10-21T20:18:26.056Z,4.65
2017-10-21T20:20:54.357Z,4.95
2017-10-21T20:23:22.605Z,5.05
2017-10-21T20:25:51.184Z,4.37
2017-10-21T20:28:19.406Z,5.03
2017-10-21T20:30:47.634Z,5.78
2017-10-21T20:33:15.933Z,5.22
2017-10-21T20:35:44.183Z,4.35
2017-10-21T20:38:12.428Z,4.57
2017-10-21T20:40:40.649Z,4.60
2017-10-21T20:43:08.889Z,4.80
2017-10-21T20:45:37.111Z,5.50
2017-10-21T20:48:05.367Z,5.07
2017-10-21T20:50:33.631Z,4.82
2017-10-21T20:53:01.886Z,5.40
2017-10-21T20:55:30.885Z,5.30
2017-10-21T20:57:59.152Z,5.37
2017-10-21T21:00:28.212Z,5.00
2017-10-21T21:02:56.465Z,4.47
2017-10-21T21:05:24.750Z,4.28
2017-10-21T21:07:53.028Z,5.30
2017-10-21T21:10:21.308Z,5.03
2017-10-21T21:12:49.585Z,4.50
2017-10-21T21:15:19.774Z,4.60
2017-10-21T21:17:48.104Z,4.43
2017-10-21T21:20:16.377Z,4.85
2017-10-21T21:22:44.591Z,4.50
2017-10-21T21:25:12.796Z,4.80
2017-10-21T21:27:41.101Z,5.70
2017-10-21T21:30:09.399Z,4.72
2017-10-21T21:32:37.643Z,4.90
2017-10-21T21:35:05.832Z,4.68
2017-10-21T21:37:34.024Z,4.80
2017-10-21T21:40:02.292Z,4.62
2017-10-21T21:42:31.405Z,4.95
2017-10-21T21:44:59.699Z,4.85
2017-10-21T21:47:28.096Z,5.10
2017-10-21T21:49:56.392Z,4.47
2017-10-21T21:52:24.621Z,4.47
2017-10-21T21:54:52.824Z,5.03
2017-10-21T21:57:21.077Z,4.10
2017-10-21T21:59:49.379Z,4.20
2017-10-21T22:02:17.948Z,4.53
2017-10-21T22:04:46.183Z,4.68
2017-10-21T22:07:16.060Z,3.92
2017-10-21T22:09:44.366Z,4.53
2017-10-21T22:12:12.696Z,4.43
2017-10-21T22:14:40.916Z,4.22
2017-10-21T22:17:09.863Z,4.85
2017-10-21T22:19:38.202Z,4.60
2017-10-21T22:22:06.415Z,4.45
2017-10-21T22:24:34.668Z,5.30
2017-10-21T22:27:02.940Z,4.03
2017-10-21T22:29:31.175Z,4.90
2017-10-21T22:32:00.223Z,4.57
2017-10-21T22:34:28.419Z,5.47
2017-10-21T22:36:56.596Z,4.60
2017-10-21T22:39:24.830Z,4.65
2017-10-21T22:41:53.023Z,4.75
2017-10-21T22:44:21.495Z,4.35
2017-10-21T22:46:49.702Z,4.40
2017-10-21T22:49:18.013Z,4.82
2017-10-21T22:51:46.247Z,4.57
2017-10-21T22:54:14.500Z,4.50
2017-10-21T22:56:42.687Z,5.30
2017-10-21T22:59:10.854Z,4.90
2017-10-21T23:01:39.064Z,4.03
2017-10-21T23:04:08.030Z,4.57
2017-10-21T23:06:36.230Z,5.05
2017-10-21T23:09:05.210Z,5.05
2017-10-21T23:11:33.453Z,4.65
2017-10-21T23:14:01.640Z,5.03
2017-10-21T23:16:29.831Z,4.90
2017-10-21T23:18:58.802Z,4.75
2017-10-21T23:21:27.004Z,5.00
2017-10-21T23:23:56.027Z,4.80
2017-10-21T23:26:24.197Z,4.45
2017-10-21T23:28:52.382Z,5.15
2017-10-21T23:31:20.603Z,5.32
2017-10-21T23:33:48.834Z,4.75
2017-10-21T23:36:17.034Z,4.78
2017-10-21T23:38:45.237Z,4.55
2017-10-21T23:41:14.270Z,4.85
2017-10-21T23:43:42.512Z,5.10
2017-10-21T23:46:11.464Z,4.90
2017-10-21T23:48:39.728Z,4.68
2017-10-21T23:51:08.062Z,5.30
2017-10-21T23:53:36.991Z,5.40
2017-10-21T23:56:05.499Z,5.65
2017-10-21T23:58:33.702Z,5.05
